sensor_id;sensor_type;location;lat;lon;timestamp;temperature;humidity
69595;DHT22;56800;52.142;5.364;2024-03-02T00:01:15;9.20;72.40
69595;DHT22;56800;52.142;5.364;2024-03-02T00:03:42;9.30;72.50
69595;DHT22;56800;52.142;5.364;2024-03-02T00:06:10;9.30;72.50
69595;DHT22;56800;52.142;5.364;2024-03-02T00:08:38;9.30;72.60
69595;DHT22;56800;52.142;5.364;2024-03-02T00:11:08;9.30;72.80
69595;DHT22;56800;52.142;5.364;2024-03-02T00:13:35;9.30;72.60
69595;DHT22;56800;52.142;5.364;2024-03-02T00:16:02;9.30;72.50
69595;DHT22;56800;52.142;5.364;2024-03-02T00:18:34;9.30;72.60
69595;DHT22;56800;52.142;5.364;2024-03-02T00:21:02;9.30;72.60
69595;DHT22;56800;52.142;5.364;2024-03-02T00:23:30;9.40;72.40
69595;DHT22;56800;52.142;5.364;2024-03-02T00:25:58;9.40;72.40
69595;DHT22;56800;52.142;5.364;2024-03-02T00:28:34;9.40;72.20
69595;DHT22;56800;52.142;5.364;2024-03-02T00:31:04;9.40;72.20
69595;DHT22;56800;52.142;5.364;2024-03-02T00:33:36;9.50;72.20
69595;DHT22;56800;52.142;5.364;2024-03-02T00:36:05;9.50;72.20
69595;DHT22;56800;52.142;5.364;2024-03-02T00:38:34;9.50;72.10
69595;DHT22;56800;52.142;5.364;2024-03-02T00:41:05;9.50;72.10
69595;DHT22;56800;52.142;5.364;2024-03-02T00:46:19;9.50;72.30
69595;DHT22;56800;52.142;5.364;2024-03-02T00:48:59;9.50;72.50
69595;DHT22;56800;52.142;5.364;2024-03-02T00:51:29;9.40;72.60
69595;DHT22;56800;52.142;5.364;2024-03-02T00:53:59;9.40;72.80
69595;DHT22;56800;52.142;5.364;2024-03-02T00:56:27;9.40;73.00
69595;DHT22;56800;52.142;5.364;2024-03-02T00:58:54;9.40;73.20
69595;DHT22;56800;52.142;5.364;2024-03-02T01:01:21;9.30;73.30
69595;DHT22;56800;52.142;5.364;2024-03-02T01:03:48;9.30;73.50
69595;DHT22;56800;52.142;5.364;2024-03-02T01:06:18;9.30;73.60
69595;DHT22;56800;52.142;5.364;2024-03-02T01:08:45;9.20;74.00
69595;DHT22;56800;52.142;5.364;2024-03-02T01:11:13;9.10;74.10
69595;DHT22;56800;52.142;5.364;2024-03-02T01:13:41;9.10;74.30
69595;DHT22;56800;52.142;5.364;2024-03-02T01:16:07;9.10;74.50
69595;DHT22;56800;52.142;5.364;2024-03-02T01:18:34;9.00;74.70
69595;DHT22;56800;52.142;5.364;2024-03-02T01:21:01;8.90;75.10
69595;DHT22;56800;52.142;5.364;2024-03-02T01:23:28;8.90;75.30
69595;DHT22;56800;52.142;5.364;2024-03-02T01:25:55;8.80;75.60
69595;DHT22;56800;52.142;5.364;2024-03-02T01:28:22;8.80;75.80
69595;DHT22;56800;52.142;5.364;2024-03-02T01:30:49;8.80;76.10
69595;DHT22;56800;52.142;5.364;2024-03-02T01:33:17;8.70;76.40
69595;DHT22;56800;52.142;5.364;2024-03-02T01:35:44;8.70;76.50
69595;DHT22;56800;52.142;5.364;2024-03-02T01:38:11;8.60;76.60
69595;DHT22;56800;52.142;5.364;2024-03-02T01:40:38;8.60;76.80
69595;DHT22;56800;52.142;5.364;2024-03-02T01:43:06;8.50;76.90
69595;DHT22;56800;52.142;5.364;2024-03-02T01:45:34;8.50;77.00
69595;DHT22;56800;52.142;5.364;2024-03-02T01:48:06;8.50;77.20
69595;DHT22;56800;52.142;5.364;2024-03-02T01:50:34;8.40;77.30
69595;DHT22;56800;52.142;5.364;2024-03-02T01:53:01;8.40;77.50
69595;DHT22;56800;52.142;5.364;2024-03-02T01:55:31;8.40;77.60
69595;DHT22;56800;52.142;5.364;2024-03-02T01:57:59;8.30;77.70
69595;DHT22;56800;52.142;5.364;2024-03-02T02:00:27;8.40;77.80
69595;DHT22;56800;52.142;5.364;2024-03-02T02:02:54;8.40;77.90
69595;DHT22;56800;52.142;5.364;2024-03-02T02:05:22;8.30;78.00
69595;DHT22;56800;52.142;5.364;2024-03-02T02:07:49;8.30;78.10
69595;DHT22;56800;52.142;5.364;2024-03-02T02:10:16;8.30;78.10
69595;DHT22;56800;52.142;5.364;2024-03-02T02:12:43;8.30;78.10
69595;DHT22;56800;52.142;5.364;2024-03-02T02:17:50;8.20;78.40
69595;DHT22;56800;52.142;5.364;2024-03-02T02:20:17;8.20;78.50
69595;DHT22;56800;52.142;5.364;2024-03-02T02:23:04;8.20;78.70
69595;DHT22;56800;52.142;5.364;2024-03-02T02:25:36;8.20;79.00
69595;DHT22;56800;52.142;5.364;2024-03-02T02:28:03;8.10;79.00
69595;DHT22;56800;52.142;5.364;2024-03-02T02:30:31;8.10;79.20
69595;DHT22;56800;52.142;5.364;2024-03-02T02:32:59;8.10;79.40
69595;DHT22;56800;52.142;5.364;2024-03-02T02:35:26;8.00;79.50
69595;DHT22;56800;52.142;5.364;2024-03-02T02:37:54;8.00;79.60
69595;DHT22;56800;52.142;5.364;2024-03-02T02:40:22;8.00;79.80
69595;DHT22;56800;52.142;5.364;2024-03-02T02:42:49;8.00;79.90
69595;DHT22;56800;52.142;5.364;2024-03-02T02:45:19;8.00;80.10
69595;DHT22;56800;52.142;5.364;2024-03-02T02:47:46;7.90;80.20
69595;DHT22;56800;52.142;5.364;2024-03-02T02:50:13;7.90;80.40
69595;DHT22;56800;52.142;5.364;2024-03-02T02:52:41;7.90;80.50
69595;DHT22;56800;52.142;5.364;2024-03-02T02:55:09;7.90;80.60
69595;DHT22;56800;52.142;5.364;2024-03-02T02:57:38;7.80;80.70
69595;DHT22;56800;52.142;5.364;2024-03-02T03:00:08;7.80;80.80
69595;DHT22;56800;52.142;5.364;2024-03-02T03:02:44;7.80;80.80
69595;DHT22;56800;52.142;5.364;2024-03-02T03:05:13;7.80;80.80
69595;DHT22;56800;52.142;5.364;2024-03-02T03:07:41;7.80;80.90
69595;DHT22;56800;52.142;5.364;2024-03-02T03:10:08;7.80;80.90
69595;DHT22;56800;52.142;5.364;2024-03-02T03:12:35;7.80;80.90
69595;DHT22;56800;52.142;5.364;2024-03-02T03:15:04;7.70;80.80
69595;DHT22;56800;52.142;5.364;2024-03-02T03:17:35;7.70;81.00
69595;DHT22;56800;52.142;5.364;2024-03-02T03:20:04;7.70;81.00
69595;DHT22;56800;52.142;5.364;2024-03-02T03:22:32;7.60;81.00
69595;DHT22;56800;52.142;5.364;2024-03-02T03:24:59;7.60;81.10
69595;DHT22;56800;52.142;5.364;2024-03-02T03:27:26;7.60;81.10
69595;DHT22;56800;52.142;5.364;2024-03-02T03:29:53;7.60;81.30
69595;DHT22;56800;52.142;5.364;2024-03-02T03:32:21;7.60;81.40
69595;DHT22;56800;52.142;5.364;2024-03-02T03:34:48;7.50;81.20
69595;DHT22;56800;52.142;5.364;2024-03-02T03:37:15;7.50;81.30
69595;DHT22;56800;52.142;5.364;2024-03-02T03:39:42;7.50;81.20
69595;DHT22;56800;52.142;5.364;2024-03-02T03:42:09;7.40;81.20
69595;DHT22;56800;52.142;5.364;2024-03-02T03:44:36;7.50;81.20
69595;DHT22;56800;52.142;5.364;2024-03-02T03:47:03;7.40;81.20
69595;DHT22;56800;52.142;5.364;2024-03-02T03:49:29;7.40;81.20
69595;DHT22;56800;52.142;5.364;2024-03-02T03:51:56;7.40;81.20
69595;DHT22;56800;52.142;5.364;2024-03-02T03:54:23;7.40;81.20
69595;DHT22;56800;52.142;5.364;2024-03-02T03:56:50;7.40;81.20
69595;DHT22;56800;52.142;5.364;2024-03-02T03:59:17;7.40;81.20
69595;DHT22;56800;52.142;5.364;2024-03-02T04:01:44;7.40;81.30
69595;DHT22;56800;52.142;5.364;2024-03-02T04:04:11;7.40;81.20
69595;DHT22;56800;52.142;5.364;2024-03-02T04:06:37;7.40;81.20
69595;DHT22;56800;52.142;5.364;2024-03-02T04:09:04;7.50;81.20
69595;DHT22;56800;52.142;5.364;2024-03-02T04:11:31;7.40;81.20
69595;DHT22;56800;52.142;5.364;2024-03-02T04:13:58;7.50;81.20
69595;DHT22;56800;52.142;5.364;2024-03-02T04:16:25;7.50;81.20
69595;DHT22;56800;52.142;5.364;2024-03-02T04:18:52;7.60;81.30
69595;DHT22;56800;52.142;5.364;2024-03-02T04:21:19;7.50;81.20
69595;DHT22;56800;52.142;5.364;2024-03-02T04:23:46;7.50;81.10
69595;DHT22;56800;52.142;5.364;2024-03-02T04:26:13;7.50;81.10
69595;DHT22;56800;52.142;5.364;2024-03-02T04:28:41;7.50;81.10
69595;DHT22;56800;52.142;5.364;2024-03-02T04:31:08;7.50;81.10
69595;DHT22;56800;52.142;5.364;2024-03-02T04:33:35;7.60;81.10
69595;DHT22;56800;52.142;5.364;2024-03-02T04:36:02;7.60;81.10
69595;DHT22;56800;52.142;5.364;2024-03-02T04:38:29;7.60;81.10
69595;DHT22;56800;52.142;5.364;2024-03-02T04:40:57;7.60;81.10
69595;DHT22;56800;52.142;5.364;2024-03-02T04:43:23;7.60;81.10
69595;DHT22;56800;52.142;5.364;2024-03-02T04:45:50;7.60;81.00
69595;DHT22;56800;52.142;5.364;2024-03-02T04:48:17;7.60;81.10
69595;DHT22;56800;52.142;5.364;2024-03-02T04:50:45;7.60;81.00
69595;DHT22;56800;52.142;5.364;2024-03-02T04:53:11;7.60;81.00
69595;DHT22;56800;52.142;5.364;2024-03-02T04:55:38;7.60;80.90
69595;DHT22;56800;52.142;5.364;2024-03-02T04:58:05;7.60;80.90
69595;DHT22;56800;52.142;5.364;2024-03-02T05:00:33;7.60;80.90
69595;DHT22;56800;52.142;5.364;2024-03-02T05:03:01;7.60;80.90
69595;DHT22;56800;52.142;5.364;2024-03-02T05:05:28;7.60;80.80
69595;DHT22;56800;52.142;5.364;2024-03-02T05:07:55;7.60;80.80
69595;DHT22;56800;52.142;5.364;2024-03-02T05:10:22;7.60;80.80
69595;DHT22;56800;52.142;5.364;2024-03-02T05:12:48;7.60;80.80
69595;DHT22;56800;52.142;5.364;2024-03-02T05:15:26;7.60;80.70
69595;DHT22;56800;52.142;5.364;2024-03-02T05:17:54;7.60;80.60
69595;DHT22;56800;52.142;5.364;2024-03-02T05:20:21;7.60;80.60
69595;DHT22;56800;52.142;5.364;2024-03-02T05:22:47;7.60;80.50
69595;DHT22;56800;52.142;5.364;2024-03-02T05:25:16;7.60;80.40
69595;DHT22;56800;52.142;5.364;2024-03-02T05:27:43;7.60;80.30
69595;DHT22;56800;52.142;5.364;2024-03-02T05:30:10;7.60;80.30
69595;DHT22;56800;52.142;5.364;2024-03-02T05:32:37;7.60;80.10
69595;DHT22;56800;52.142;5.364;2024-03-02T05:35:04;7.60;80.10
69595;DHT22;56800;52.142;5.364;2024-03-02T05:37:32;7.60;80.00
69595;DHT22;56800;52.142;5.364;2024-03-02T05:39:58;7.60;79.70
69595;DHT22;56800;52.142;5.364;2024-03-02T05:42:26;7.60;79.70
69595;DHT22;56800;52.142;5.364;2024-03-02T05:44:54;7.60;79.40
69595;DHT22;56800;52.142;5.364;2024-03-02T05:47:21;7.50;79.30
69595;DHT22;56800;52.142;5.364;2024-03-02T05:49:48;7.50;79.20
69595;DHT22;56800;52.142;5.364;2024-03-02T05:52:14;7.50;79.10
69595;DHT22;56800;52.142;5.364;2024-03-02T05:54:41;7.40;79.10
69595;DHT22;56800;52.142;5.364;2024-03-02T05:57:08;7.40;79.10
69595;DHT22;56800;52.142;5.364;2024-03-02T05:59:59;7.40;79.10
69595;DHT22;56800;52.142;5.364;2024-03-02T06:02:26;7.40;79.00
69595;DHT22;56800;52.142;5.364;2024-03-02T06:04:55;7.40;78.90
69595;DHT22;56800;52.142;5.364;2024-03-02T06:07:22;7.40;78.80
69595;DHT22;56800;52.142;5.364;2024-03-02T06:09:49;7.40;78.80
69595;DHT22;56800;52.142;5.364;2024-03-02T06:12:18;7.40;78.80
69595;DHT22;56800;52.142;5.364;2024-03-02T06:14:45;7.40;78.80
69595;DHT22;56800;52.142;5.364;2024-03-02T06:17:12;7.40;78.80
69595;DHT22;56800;52.142;5.364;2024-03-02T06:19:39;7.40;78.80
69595;DHT22;56800;52.142;5.364;2024-03-02T06:22:06;7.40;78.80
69595;DHT22;56800;52.142;5.364;2024-03-02T06:24:36;7.40;78.80
69595;DHT22;56800;52.142;5.364;2024-03-02T06:27:05;7.40;78.70
69595;DHT22;56800;52.142;5.364;2024-03-02T06:29:34;7.40;78.80
69595;DHT22;56800;52.142;5.364;2024-03-02T06:32:01;7.40;78.80
69595;DHT22;56800;52.142;5.364;2024-03-02T06:34:28;7.40;78.80
69595;DHT22;56800;52.142;5.364;2024-03-02T06:36:55;7.40;78.80
69595;DHT22;56800;52.142;5.364;2024-03-02T06:39:22;7.50;78.90
69595;DHT22;56800;52.142;5.364;2024-03-02T06:41:49;7.50;79.10
69595;DHT22;56800;52.142;5.364;2024-03-02T06:44:16;7.50;79.00
69595;DHT22;56800;52.142;5.364;2024-03-02T06:46:43;7.50;78.90
69595;DHT22;56800;52.142;5.364;2024-03-02T06:49:10;7.50;78.80
69595;DHT22;56800;52.142;5.364;2024-03-02T06:51:39;7.50;78.90
69595;DHT22;56800;52.142;5.364;2024-03-02T06:54:06;7.50;78.80
69595;DHT22;56800;52.142;5.364;2024-03-02T06:56:33;7.50;78.80
69595;DHT22;56800;52.142;5.364;2024-03-02T06:59:00;7.50;79.60
69595;DHT22;56800;52.142;5.364;2024-03-02T07:01:26;7.50;78.90
69595;DHT22;56800;52.142;5.364;2024-03-02T07:03:54;7.60;78.80
69595;DHT22;56800;52.142;5.364;2024-03-02T07:06:21;7.60;78.70
69595;DHT22;56800;52.142;5.364;2024-03-02T07:08:48;7.60;78.50
69595;DHT22;56800;52.142;5.364;2024-03-02T07:11:15;7.60;78.50
69595;DHT22;56800;52.142;5.364;2024-03-02T07:13:42;7.70;78.80
69595;DHT22;56800;52.142;5.364;2024-03-02T07:16:09;7.80;78.60
69595;DHT22;56800;52.142;5.364;2024-03-02T07:18:55;7.90;78.10
69595;DHT22;56800;52.142;5.364;2024-03-02T07:21:23;7.90;78.00
69595;DHT22;56800;52.142;5.364;2024-03-02T07:23:51;7.90;77.80
69595;DHT22;56800;52.142;5.364;2024-03-02T07:26:17;7.90;77.90
69595;DHT22;56800;52.142;5.364;2024-03-02T07:28:48;8.00;78.20
69595;DHT22;56800;52.142;5.364;2024-03-02T07:31:15;8.20;78.70
69595;DHT22;56800;52.142;5.364;2024-03-02T07:33:45;8.30;77.00
69595;DHT22;56800;52.142;5.364;2024-03-02T07:36:13;8.40;76.80
69595;DHT22;56800;52.142;5.364;2024-03-02T07:38:40;8.40;76.50
69595;DHT22;56800;52.142;5.364;2024-03-02T07:41:08;8.40;76.30
69595;DHT22;56800;52.142;5.364;2024-03-02T07:43:35;8.30;76.00
69595;DHT22;56800;52.142;5.364;2024-03-02T07:46:02;8.30;76.20
69595;DHT22;56800;52.142;5.364;2024-03-02T07:48:30;8.40;76.50
69595;DHT22;56800;52.142;5.364;2024-03-02T07:50:57;8.50;76.30
69595;DHT22;56800;52.142;5.364;2024-03-02T07:53:24;8.50;76.00
69595;DHT22;56800;52.142;5.364;2024-03-02T07:55:51;8.40;75.90
69595;DHT22;56800;52.142;5.364;2024-03-02T07:58:19;8.40;75.80
69595;DHT22;56800;52.142;5.364;2024-03-02T08:00:46;8.40;75.90
69595;DHT22;56800;52.142;5.364;2024-03-02T08:03:19;8.30;75.90
69595;DHT22;56800;52.142;5.364;2024-03-02T08:05:46;8.30;76.10
69595;DHT22;56800;52.142;5.364;2024-03-02T08:08:13;8.30;76.20
69595;DHT22;56800;52.142;5.364;2024-03-02T08:10:40;8.30;76.20
69595;DHT22;56800;52.142;5.364;2024-03-02T08:13:06;8.30;76.10
69595;DHT22;56800;52.142;5.364;2024-03-02T08:15:33;8.20;76.30
69595;DHT22;56800;52.142;5.364;2024-03-02T08:18:00;8.20;76.10
69595;DHT22;56800;52.142;5.364;2024-03-02T08:20:27;8.20;76.00
69595;DHT22;56800;52.142;5.364;2024-03-02T08:22:54;8.30;76.30
69595;DHT22;56800;52.142;5.364;2024-03-02T08:25:21;8.30;76.30
69595;DHT22;56800;52.142;5.364;2024-03-02T08:27:49;8.30;76.20
69595;DHT22;56800;52.142;5.364;2024-03-02T08:30:16;8.40;76.40
69595;DHT22;56800;52.142;5.364;2024-03-02T08:32:44;8.40;76.20
69595;DHT22;56800;52.142;5.364;2024-03-02T08:35:14;8.60;76.60
69595;DHT22;56800;52.142;5.364;2024-03-02T08:37:42;8.80;77.20
69595;DHT22;56800;52.142;5.364;2024-03-02T08:40:10;9.10;77.90
69595;DHT22;56800;52.142;5.364;2024-03-02T08:42:41;9.50;76.60
69595;DHT22;56800;52.142;5.364;2024-03-02T08:45:08;10.30;76.30
69595;DHT22;56800;52.142;5.364;2024-03-02T08:47:35;11.20;74.40
69595;DHT22;56800;52.142;5.364;2024-03-02T08:50:03;12.10;73.10
69595;DHT22;56800;52.142;5.364;2024-03-02T08:52:31;13.00;70.90
69595;DHT22;56800;52.142;5.364;2024-03-02T08:54:58;13.70;69.80
69595;DHT22;56800;52.142;5.364;2024-03-02T08:57:25;14.30;66.90
69595;DHT22;56800;52.142;5.364;2024-03-02T08:59:52;14.50;64.00
69595;DHT22;56800;52.142;5.364;2024-03-02T09:02:19;14.50;63.40
69595;DHT22;56800;52.142;5.364;2024-03-02T09:04:46;14.40;63.20
69595;DHT22;56800;52.142;5.364;2024-03-02T09:07:13;14.30;62.80
69595;DHT22;56800;52.142;5.364;2024-03-02T09:09:40;14.00;62.20
69595;DHT22;56800;52.142;5.364;2024-03-02T09:12:07;13.90;62.70
69595;DHT22;56800;52.142;5.364;2024-03-02T09:14:35;14.10;63.30
69595;DHT22;56800;52.142;5.364;2024-03-02T09:17:03;14.50;62.40
69595;DHT22;56800;52.142;5.364;2024-03-02T09:19:30;15.00;62.50
69595;DHT22;56800;52.142;5.364;2024-03-02T09:21:57;15.70;60.10
69595;DHT22;56800;52.142;5.364;2024-03-02T09:24:25;16.20;61.10
69595;DHT22;56800;52.142;5.364;2024-03-02T09:26:52;17.10;58.80
69595;DHT22;56800;52.142;5.364;2024-03-02T09:29:19;17.90;56.60
69595;DHT22;56800;52.142;5.364;2024-03-02T09:31:47;18.50;53.80
69595;DHT22;56800;52.142;5.364;2024-03-02T09:34:14;18.90;51.20
69595;DHT22;56800;52.142;5.364;2024-03-02T09:36:44;18.90;49.80
69595;DHT22;56800;52.142;5.364;2024-03-02T09:39:11;19.10;49.50
69595;DHT22;56800;52.142;5.364;2024-03-02T09:41:38;19.60;49.80
69595;DHT22;56800;52.142;5.364;2024-03-02T09:44:05;20.30;48.10
69595;DHT22;56800;52.142;5.364;2024-03-02T09:46:33;20.70;46.50
69595;DHT22;56800;52.142;5.364;2024-03-02T09:49:00;20.80;45.00
69595;DHT22;56800;52.142;5.364;2024-03-02T09:51:27;20.90;46.30
69595;DHT22;56800;52.142;5.364;2024-03-02T09:53:55;21.30;45.20
69595;DHT22;56800;52.142;5.364;2024-03-02T09:56:38;22.00;45.50
69595;DHT22;56800;52.142;5.364;2024-03-02T09:59:05;22.10;41.80
69595;DHT22;56800;52.142;5.364;2024-03-02T10:01:32;21.90;41.70
69595;DHT22;56800;52.142;5.364;2024-03-02T10:04:00;21.90;41.00
69595;DHT22;56800;52.142;5.364;2024-03-02T10:06:28;22.00;41.80
69595;DHT22;56800;52.142;5.364;2024-03-02T10:08:56;22.40;41.50
69595;DHT22;56800;52.142;5.364;2024-03-02T10:11:33;22.50;39.00
69595;DHT22;56800;52.142;5.364;2024-03-02T10:16:42;22.50;39.50
69595;DHT22;56800;52.142;5.364;2024-03-02T10:19:20;22.50;40.30
69595;DHT22;56800;52.142;5.364;2024-03-02T10:21:52;22.60;38.20
69595;DHT22;56800;52.142;5.364;2024-03-02T10:24:20;22.50;39.30
69595;DHT22;56800;52.142;5.364;2024-03-02T10:26:48;22.20;38.70
69595;DHT22;56800;52.142;5.364;2024-03-02T10:29:16;22.30;39.30
69595;DHT22;56800;52.142;5.364;2024-03-02T10:31:46;21.80;38.60
69595;DHT22;56800;52.142;5.364;2024-03-02T10:34:13;21.10;38.70
69595;DHT22;56800;52.142;5.364;2024-03-02T10:36:41;20.50;40.00
69595;DHT22;56800;52.142;5.364;2024-03-02T10:39:10;20.10;42.10
69595;DHT22;56800;52.142;5.364;2024-03-02T10:41:38;19.90;43.10
69595;DHT22;56800;52.142;5.364;2024-03-02T10:44:07;19.80;43.50
69595;DHT22;56800;52.142;5.364;2024-03-02T10:46:36;19.40;43.50
69595;DHT22;56800;52.142;5.364;2024-03-02T10:49:04;19.20;44.00
69595;DHT22;56800;52.142;5.364;2024-03-02T10:51:35;18.90;43.20
69595;DHT22;56800;52.142;5.364;2024-03-02T10:54:04;18.80;44.80
69595;DHT22;56800;52.142;5.364;2024-03-02T10:56:39;18.80;43.80
69595;DHT22;56800;52.142;5.364;2024-03-02T10:59:38;18.80;43.90
69595;DHT22;56800;52.142;5.364;2024-03-02T11:02:03;18.60;43.70
69595;DHT22;56800;52.142;5.364;2024-03-02T11:04:32;18.50;44.80
69595;DHT22;56800;52.142;5.364;2024-03-02T11:07:07;18.30;45.60
69595;DHT22;56800;52.142;5.364;2024-03-02T11:09:37;18.10;45.20
69595;DHT22;56800;52.142;5.364;2024-03-02T11:12:28;17.70;45.10
69595;DHT22;56800;52.142;5.364;2024-03-02T11:14:56;17.40;45.10
69595;DHT22;56800;52.142;5.364;2024-03-02T11:17:24;16.90;45.90
69595;DHT22;56800;52.142;5.364;2024-03-02T11:19:52;16.50;45.90
69595;DHT22;56800;52.142;5.364;2024-03-02T11:22:19;16.30;47.20
69595;DHT22;56800;52.142;5.364;2024-03-02T11:24:51;16.10;47.60
69595;DHT22;56800;52.142;5.364;2024-03-02T11:33:11;15.70;48.00
69595;DHT22;56800;52.142;5.364;2024-03-02T11:35:44;15.60;48.40
69595;DHT22;56800;52.142;5.364;2024-03-02T11:38:14;15.40;48.70
69595;DHT22;56800;52.142;5.364;2024-03-02T11:40:41;15.30;49.50
69595;DHT22;56800;52.142;5.364;2024-03-02T11:43:09;15.30;49.20
69595;DHT22;56800;52.142;5.364;2024-03-02T11:45:36;15.10;49.30
69595;DHT22;56800;52.142;5.364;2024-03-02T11:48:08;15.00;49.80
69595;DHT22;56800;52.142;5.364;2024-03-02T11:50:47;14.90;50.80
69595;DHT22;56800;52.142;5.364;2024-03-02T11:53:16;15.00;51.20
69595;DHT22;56800;52.142;5.364;2024-03-02T11:55:46;15.00;51.00
69595;DHT22;56800;52.142;5.364;2024-03-02T11:58:15;15.00;51.00
69595;DHT22;56800;52.142;5.364;2024-03-02T12:00:47;15.10;50.90
69595;DHT22;56800;52.142;5.364;2024-03-02T12:03:17;15.10;50.40
69595;DHT22;56800;52.142;5.364;2024-03-02T12:05:44;15.10;50.00
69595;DHT22;56800;52.142;5.364;2024-03-02T12:08:14;15.10;49.50
69595;DHT22;56800;52.142;5.364;2024-03-02T12:10:41;15.10;49.80
69595;DHT22;56800;52.142;5.364;2024-03-02T12:13:08;15.10;50.20
69595;DHT22;56800;52.142;5.364;2024-03-02T12:15:38;15.20;50.60
69595;DHT22;56800;52.142;5.364;2024-03-02T12:18:06;15.30;50.30
69595;DHT22;56800;52.142;5.364;2024-03-02T12:20:34;15.30;50.60
69595;DHT22;56800;52.142;5.364;2024-03-02T12:23:04;15.50;50.40
69595;DHT22;56800;52.142;5.364;2024-03-02T12:25:32;15.70;50.20
69595;DHT22;56800;52.142;5.364;2024-03-02T12:28:02;15.90;50.20
69595;DHT22;56800;52.142;5.364;2024-03-02T12:30:30;16.10;49.80
69595;DHT22;56800;52.142;5.364;2024-03-02T12:32:58;16.30;48.60
69595;DHT22;56800;52.142;5.364;2024-03-02T12:35:25;16.30;48.00
69595;DHT22;56800;52.142;5.364;2024-03-02T12:37:53;16.40;47.60
69595;DHT22;56800;52.142;5.364;2024-03-02T12:40:21;16.50;47.30
69595;DHT22;56800;52.142;5.364;2024-03-02T12:42:50;16.60;47.50
69595;DHT22;56800;52.142;5.364;2024-03-02T12:45:17;16.70;45.90
69595;DHT22;56800;52.142;5.364;2024-03-02T12:47:51;16.70;45.50
69595;DHT22;56800;52.142;5.364;2024-03-02T12:50:19;16.60;45.80
69595;DHT22;56800;52.142;5.364;2024-03-02T12:52:53;16.60;47.00
69595;DHT22;56800;52.142;5.364;2024-03-02T12:55:22;16.90;47.10
69595;DHT22;56800;52.142;5.364;2024-03-02T12:57:50;16.90;46.80
69595;DHT22;56800;52.142;5.364;2024-03-02T13:00:19;17.00;45.90
69595;DHT22;56800;52.142;5.364;2024-03-02T13:02:47;16.80;46.00
69595;DHT22;56800;52.142;5.364;2024-03-02T13:05:19;16.80;46.90
69595;DHT22;56800;52.142;5.364;2024-03-02T13:07:47;16.80;46.30
69595;DHT22;56800;52.142;5.364;2024-03-02T13:10:16;16.80;46.70
69595;DHT22;56800;52.142;5.364;2024-03-02T13:12:43;16.80;46.60
69595;DHT22;56800;52.142;5.364;2024-03-02T13:15:10;16.90;47.30
69595;DHT22;56800;52.142;5.364;2024-03-02T13:17:44;16.90;47.30
69595;DHT22;56800;52.142;5.364;2024-03-02T13:20:12;17.00;47.50
69595;DHT22;56800;52.142;5.364;2024-03-02T13:22:41;17.00;47.90
69595;DHT22;56800;52.142;5.364;2024-03-02T13:25:09;17.00;47.70
69595;DHT22;56800;52.142;5.364;2024-03-02T13:27:38;16.90;47.70
69595;DHT22;56800;52.142;5.364;2024-03-02T13:30:06;16.80;48.20
69595;DHT22;56800;52.142;5.364;2024-03-02T13:32:34;16.80;48.90
69595;DHT22;56800;52.142;5.364;2024-03-02T13:35:02;16.70;49.20
69595;DHT22;56800;52.142;5.364;2024-03-02T13:37:29;16.60;49.60
69595;DHT22;56800;52.142;5.364;2024-03-02T13:39:56;16.50;49.70
69595;DHT22;56800;52.142;5.364;2024-03-02T13:42:23;16.50;49.70
69595;DHT22;56800;52.142;5.364;2024-03-02T13:44:50;16.50;49.30
69595;DHT22;56800;52.142;5.364;2024-03-02T13:47:18;16.40;49.70
69595;DHT22;56800;52.142;5.364;2024-03-02T13:49:45;16.40;50.10
69595;DHT22;56800;52.142;5.364;2024-03-02T13:52:14;16.40;50.00
69595;DHT22;56800;52.142;5.364;2024-03-02T13:54:45;16.30;49.70
69595;DHT22;56800;52.142;5.364;2024-03-02T13:57:12;16.20;50.10
69595;DHT22;56800;52.142;5.364;2024-03-02T13:59:41;16.20;50.80
69595;DHT22;56800;52.142;5.364;2024-03-02T14:02:09;16.20;50.90
69595;DHT22;56800;52.142;5.364;2024-03-02T14:04:37;16.00;51.40
69595;DHT22;56800;52.142;5.364;2024-03-02T14:07:06;15.80;50.50
69595;DHT22;56800;52.142;5.364;2024-03-02T14:09:37;15.70;50.60
69595;DHT22;56800;52.142;5.364;2024-03-02T14:12:04;15.60;50.70
69595;DHT22;56800;52.142;5.364;2024-03-02T14:14:32;15.40;51.10
69595;DHT22;56800;52.142;5.364;2024-03-02T14:17:00;15.30;51.40
69595;DHT22;56800;52.142;5.364;2024-03-02T14:19:30;15.20;51.80
69595;DHT22;56800;52.142;5.364;2024-03-02T14:21:58;15.10;52.20
69595;DHT22;56800;52.142;5.364;2024-03-02T14:24:26;15.00;52.40
69595;DHT22;56800;52.142;5.364;2024-03-02T14:26:55;14.90;52.80
69595;DHT22;56800;52.142;5.364;2024-03-02T14:29:36;14.80;53.00
69595;DHT22;56800;52.142;5.364;2024-03-02T14:32:05;14.80;53.70
69595;DHT22;56800;52.142;5.364;2024-03-02T14:34:34;14.70;54.00
69595;DHT22;56800;52.142;5.364;2024-03-02T14:37:04;14.60;54.00
69595;DHT22;56800;52.142;5.364;2024-03-02T14:39:31;14.60;54.20
69595;DHT22;56800;52.142;5.364;2024-03-02T14:42:01;14.50;54.10
69595;DHT22;56800;52.142;5.364;2024-03-02T14:44:28;14.60;54.80
69595;DHT22;56800;52.142;5.364;2024-03-02T14:46:55;14.60;55.10
69595;DHT22;56800;52.142;5.364;2024-03-02T14:49:25;14.50;54.30
69595;DHT22;56800;52.142;5.364;2024-03-02T14:51:52;14.50;54.70
69595;DHT22;56800;52.142;5.364;2024-03-02T14:54:20;14.50;54.30
69595;DHT22;56800;52.142;5.364;2024-03-02T14:56:46;14.50;54.10
69595;DHT22;56800;52.142;5.364;2024-03-02T14:59:13;14.50;54.30
69595;DHT22;56800;52.142;5.364;2024-03-02T15:01:40;14.50;54.30
69595;DHT22;56800;52.142;5.364;2024-03-02T15:04:07;14.50;54.00
69595;DHT22;56800;52.142;5.364;2024-03-02T15:06:34;14.40;54.00
69595;DHT22;56800;52.142;5.364;2024-03-02T15:09:01;14.40;54.40
69595;DHT22;56800;52.142;5.364;2024-03-02T15:11:28;14.40;54.50
69595;DHT22;56800;52.142;5.364;2024-03-02T15:13:56;14.40;54.60
69595;DHT22;56800;52.142;5.364;2024-03-02T15:16:23;14.40;54.60
69595;DHT22;56800;52.142;5.364;2024-03-02T15:18:51;14.30;55.30
69595;DHT22;56800;52.142;5.364;2024-03-02T15:21:18;14.20;53.90
69595;DHT22;56800;52.142;5.364;2024-03-02T15:23:48;14.20;54.10
69595;DHT22;56800;52.142;5.364;2024-03-02T15:26:15;14.10;54.70
69595;DHT22;56800;52.142;5.364;2024-03-02T15:28:42;14.10;54.80
69595;DHT22;56800;52.142;5.364;2024-03-02T15:31:09;14.10;55.60
69595;DHT22;56800;52.142;5.364;2024-03-02T15:33:36;14.00;55.40
69595;DHT22;56800;52.142;5.364;2024-03-02T15:36:03;14.00;55.60
69595;DHT22;56800;52.142;5.364;2024-03-02T15:38:31;13.90;55.50
69595;DHT22;56800;52.142;5.364;2024-03-02T15:41:03;13.90;55.60
69595;DHT22;56800;52.142;5.364;2024-03-02T15:43:30;13.80;55.30
69595;DHT22;56800;52.142;5.364;2024-03-02T15:45:57;13.80;55.90
69595;DHT22;56800;52.142;5.364;2024-03-02T15:48:25;13.70;57.10
69595;DHT22;56800;52.142;5.364;2024-03-02T15:50:52;13.70;56.00
69595;DHT22;56800;52.142;5.364;2024-03-02T15:53:19;13.60;56.20
69595;DHT22;56800;52.142;5.364;2024-03-02T15:55:48;13.50;56.00
69595;DHT22;56800;52.142;5.364;2024-03-02T15:58:15;13.50;56.70
69595;DHT22;56800;52.142;5.364;2024-03-02T16:00:42;13.50;57.40